Time;durP1;ratioP1;P1;durP2;ratioP2;P2;SDS_P1;SDS_P2;PMS_P1;PMS_P2;Temp;Humidity;BMP_temperature;BMP_pressure;BME280_temperature;BME280_humidity;BME280_pressure;Samples;Min_cycle;Max_cycle;Signal;HPM_P1;HPM_P2
2023/07/04 00:01:20;;;;;;;13.32;2.95;;;;;;;15.11;100.00;100957.19;5047406;28;20029;-58
2023/07/04 00:03:50;;;;;;;12.02;3.17;;;;;;;15.08;100.00;100954.53;5047963;28;20457;-55
2023/07/04 00:06:17;;;;;;;11.27;3.25;;;;;;;15.09;100.00;100958.03;5047336;28;20092;-57
2023/07/04 00:08:43;;;;;;;7.22;2.83;;;;;;;15.09;100.00;100951.06;5047567;28;20079;-57
2023/07/04 00:11:09;;;;;;;8.38;2.92;;;;;;;15.07;100.00;100950.19;5047129;28;20435;-57
2023/07/04 00:13:36;;;;;;;9.75;2.85;;;;;;;15.05;100.00;100949.28;5047484;28;20429;-57
2023/07/04 00:16:05;;;;;;;9.45;2.88;;;;;;;15.03;100.00;100953.59;5047141;28;20036;-57
2023/07/04 00:18:31;;;;;;;10.07;3.35;;;;;;;15.02;100.00;100949.22;5046929;28;20056;-57
2023/07/04 00:20:59;;;;;;;9.55;2.67;;;;;;;14.98;100.00;100940.50;5046130;28;20505;-57
2023/07/04 00:23:33;;;;;;;10.70;3.00;;;;;;;14.98;100.00;100942.22;5047124;28;20104;-57
2023/07/04 00:26:00;;;;;;;9.65;3.00;;;;;;;14.95;100.00;100940.44;5047828;28;20314;-57
2023/07/04 00:28:25;;;;;;;11.68;3.30;;;;;;;14.93;100.00;100942.13;5047084;28;20044;-58
2023/07/04 00:30:52;;;;;;;10.43;2.90;;;;;;;14.93;100.00;100943.88;5046262;28;20078;-57
2023/07/04 00:33:18;;;;;;;10.00;3.58;;;;;;;14.87;100.00;100945.53;5047341;28;20071;-57
2023/07/04 00:35:45;;;;;;;8.90;3.20;;;;;;;14.86;100.00;100949.00;5047176;28;20027;-58
2023/07/04 00:38:15;;;;;;;12.85;4.07;;;;;;;14.86;100.00;100954.22;5046395;28;20413;-58
2023/07/04 00:40:40;;;;;;;14.50;3.28;;;;;;;14.85;100.00;100962.00;5046918;28;20021;-58
2023/07/04 00:43:12;;;;;;;10.85;3.20;;;;;;;14.84;100.00;100955.06;5045869;28;20031;-57
2023/07/04 00:45:42;;;;;;;;;;;;;;;14.81;100.00;100942.81;5047367;28;20029;-57
2023/07/04 00:48:10;;;;;;;12.30;3.33;;;;;;;14.80;100.00;100948.00;5035016;28;19940;-58
2023/07/04 00:50:43;;;;;;;18.95;3.90;;;;;;;14.77;100.00;100939.25;5047220;28;20013;-58
2023/07/04 00:53:10;;;;;;;15.57;3.72;;;;;;;14.73;100.00;100941.81;5037846;28;20029;-56
2023/07/04 00:55:39;;;;;;;10.02;3.17;;;;;;;14.69;100.00;100946.09;5042993;28;20021;-58
2023/07/04 00:58:05;;;;;;;12.98;3.08;;;;;;;14.70;100.00;100936.50;5047017;28;20033;-58
2023/07/04 01:00:32;;;;;;;12.57;3.47;;;;;;;14.69;100.00;100937.38;5046573;28;20504;-58
2023/07/04 01:03:05;;;;;;;15.90;3.70;;;;;;;14.68;100.00;100938.25;5038027;28;20029;-58
2023/07/04 01:05:51;;;;;;;11.38;3.58;;;;;;;14.68;100.00;100943.47;5041302;28;20025;-57
2023/07/04 01:08:48;;;;;;;7.68;3.67;;;;;;;14.69;100.00;100945.19;5041103;28;20440;-58
2023/07/04 01:11:25;;;;;;;11.88;3.72;;;;;;;14.68;100.00;100948.69;5055096;28;20119;-56
2023/07/04 01:13:51;;;;;;;10.80;3.20;;;;;;;14.71;100.00;100948.72;5045778;28;20025;-58
2023/07/04 01:16:19;;;;;;;13.35;3.55;;;;;;;14.70;100.00;100942.63;5034116;28;20029;-58
2023/07/04 01:18:48;;;;;;;9.80;3.67;;;;;;;14.67;100.00;100941.69;5046135;28;20021;-56
2023/07/04 01:21:18;;;;;;;12.07;3.58;;;;;;;14.66;100.00;100940.81;5046873;28;20075;-56
2023/07/04 01:24:04;;;;;;;10.50;3.25;;;;;;;14.67;100.00;100946.91;5046206;28;20536;-58
2023/07/04 01:26:45;;;;;;;16.85;3.65;;;;;;;14.65;100.00;100950.38;5046445;28;20029;-58
2023/07/04 01:29:14;;;;;;;16.02;3.42;;;;;;;14.62;100.00;100949.44;5046713;28;20108;-57
2023/07/04 01:31:40;;;;;;;11.77;3.45;;;;;;;14.61;100.00;100953.78;5046488;28;20029;-58
2023/07/04 01:34:08;;;;;;;13.60;4.15;;;;;;;14.60;100.00;100951.16;5046660;28;20295;-58
2023/07/04 01:36:37;;;;;;;16.58;4.32;;;;;;;14.59;100.00;100947.66;5046154;28;20029;-56
2023/07/04 01:39:03;;;;;;;16.85;3.67;;;;;;;14.61;100.00;100948.56;5046494;28;20516;-58
2023/07/04 01:41:29;;;;;;;12.63;3.90;;;;;;;14.61;100.00;100959.00;5046633;28;20365;-57
2023/07/04 01:44:03;;;;;;;17.13;3.92;;;;;;;14.61;100.00;100950.28;5046191;28;20029;-58
2023/07/04 01:46:29;;;;;;;17.27;4.22;;;;;;;14.60;100.00;100945.94;5044281;28;20049;-58
2023/07/04 01:48:55;;;;;;;17.95;5.25;;;;;;;14.57;100.00;100949.34;5040013;28;20127;-57
2023/07/04 01:51:31;;;;;;;16.73;4.00;;;;;;;14.59;100.00;100950.25;5045580;28;20020;-57
2023/07/04 01:53:57;;;;;;;15.63;4.55;;;;;;;14.56;100.00;100952.81;5047464;28;20108;-57
2023/07/04 01:56:23;;;;;;;12.75;3.88;;;;;;;14.57;100.00;100945.88;5049692;28;20115;-57
2023/07/04 01:58:49;;;;;;;11.90;3.25;;;;;;;14.57;100.00;100946.75;5049995;28;20116;-57
2023/07/04 02:01:14;;;;;;;12.88;4.05;;;;;;;14.57;100.00;100959.78;5048952;28;20051;-56
2023/07/04 02:03:40;;;;;;;15.25;3.75;;;;;;;14.57;100.00;100951.94;5050384;28;20488;-58
2023/07/04 02:06:06;;;;;;;13.15;4.07;;;;;;;14.59;100.00;100955.47;5049840;28;20028;-57
2023/07/04 02:08:32;;;;;;;18.13;4.53;;;;;;;14.61;100.00;100948.56;5050373;28;20098;-56
2023/07/04 02:10:57;;;;;;;13.02;3.60;;;;;;;14.62;100.00;100942.50;5049106;28;20021;-57
2023/07/04 02:13:23;;;;;;;13.35;4.05;;;;;;;14.63;100.00;100945.97;5050037;28;20078;-56
2023/07/04 02:15:48;;;;;;;15.02;3.75;;;;;;;14.63;100.00;100940.75;5049252;28;20393;-58
2023/07/04 02:18:13;;;;;;;12.68;4.43;;;;;;;14.63;100.00;100952.06;5049901;28;20405;-57
2023/07/04 02:20:39;;;;;;;16.65;4.00;;;;;;;14.60;100.00;100948.53;5049831;28;20017;-58
2023/07/04 02:23:04;;;;;;;11.55;4.05;;;;;;;14.60;100.00;100939.00;5049145;28;20033;-58
2023/07/04 02:25:29;;;;;;;15.45;4.90;;;;;;;14.60;100.00;100939.00;5049547;28;20013;-58
2023/07/04 02:27:54;;;;;;;14.68;4.80;;;;;;;14.60;100.00;100946.81;5049110;28;20017;-56
2023/07/04 02:30:20;;;;;;;12.52;4.30;;;;;;;14.61;100.00;100945.94;5049807;28;20028;-56
2023/07/04 02:32:45;;;;;;;15.55;4.10;;;;;;;14.61;100.00;100945.94;5049476;28;20473;-56
2023/07/04 02:35:10;;;;;;;10.73;4.13;;;;;;;14.64;100.00;100952.97;5041738;28;20036;-57
2023/07/04 02:37:36;;;;;;;13.82;3.78;;;;;;;14.67;100.00;100946.91;5043408;28;20124;-57
2023/07/04 02:40:01;;;;;;;15.48;4.65;;;;;;;14.68;100.00;100948.69;5049053;28;20064;-57
2023/07/04 02:42:27;;;;;;;13.85;3.70;;;;;;;14.69;100.00;100963.47;5048681;28;20090;-58
2023/07/04 02:44:52;;;;;;;13.68;4.50;;;;;;;14.70;100.00;100967.81;5049216;28;20531;-57
2023/07/04 02:47:18;;;;;;;12.82;3.88;;;;;;;14.73;100.00;100970.50;5048769;28;20048;-59
2023/07/04 02:49:43;;;;;;;14.57;4.70;;;;;;;14.72;100.00;100966.09;5048831;28;20013;-57
2023/07/04 02:52:09;;;;;;;15.90;4.88;;;;;;;14.69;100.00;100960.84;5048868;28;20079;-57
2023/07/04 02:54:34;;;;;;;13.73;4.07;;;;;;;14.63;100.00;100957.28;5048826;28;20025;-58
2023/07/04 02:56:59;;;;;;;16.90;5.38;;;;;;;14.58;100.00;100948.50;5048191;28;20052;-57
2023/07/04 02:59:25;;;;;;;16.90;5.55;;;;;;;14.50;100.00;100944.88;5048777;28;20064;-59
2023/07/04 03:01:52;;;;;;;17.50;5.80;;;;;;;14.44;100.00;100945.66;5048846;28;20023;-57
2023/07/04 03:04:17;;;;;;;14.70;5.32;;;;;;;14.39;100.00;100953.38;5049104;28;20542;-58
2023/07/04 03:06:42;;;;;;;15.23;5.75;;;;;;;14.34;100.00;100948.94;5048760;28;20111;-58
2023/07/04 03:09:08;;;;;;;10.13;3.92;;;;;;;14.28;100.00;100949.72;5048077;28;20020;-56
2023/07/04 03:11:33;;;;;;;13.40;5.00;;;;;;;14.24;100.00;100950.50;5048802;28;20025;-56
2023/07/04 03:13:58;;;;;;;12.02;4.82;;;;;;;14.21;100.00;100953.06;5048918;28;20029;-57
2023/07/04 03:16:23;;;;;;;10.15;4.13;;;;;;;14.17;100.00;100955.59;5048480;28;20082;-57
2023/07/04 03:18:49;;;;;;;14.48;3.83;;;;;;;14.11;100.00;100955.50;5048752;28;20449;-56
2023/07/04 03:21:14;;;;;;;12.80;4.40;;;;;;;14.08;100.00;100958.06;5048545;28;20655;-57
2023/07/04 03:23:39;;;;;;;11.32;4.45;;;;;;;14.02;100.00;100955.31;5048021;28;20075;-56
2023/07/04 03:26:04;;;;;;;8.00;4.05;;;;;;;13.99;100.00;100963.06;5048078;28;20035;-57
2023/07/04 03:28:30;;;;;;;10.57;3.67;;;;;;;13.98;100.00;100953.47;5047514;28;20021;-58
2023/07/04 03:30:56;;;;;;;12.90;4.38;;;;;;;13.97;100.00;100959.56;5048300;28;20472;-57
2023/07/04 03:33:21;;;;;;;12.40;5.00;;;;;;;13.95;100.00;100961.25;5046313;28;20027;-57
2023/07/04 03:35:46;;;;;;;15.70;4.60;;;;;;;13.91;100.00;100961.19;5046144;28;20405;-57
2023/07/04 03:38:11;;;;;;;15.95;4.72;;;;;;;13.91;100.00;100965.50;5046077;28;20045;-57
2023/07/04 03:40:37;;;;;;;11.32;4.72;;;;;;;13.89;100.00;100967.19;5047557;28;20016;-57
2023/07/04 03:43:02;;;;;;;14.15;5.15;;;;;;;13.84;100.00;100967.13;5047816;28;20017;-58
2023/07/04 03:45:27;;;;;;;15.48;4.82;;;;;;;13.78;100.00;100967.88;5048203;28;20480;-58
2023/07/04 03:47:53;;;;;;;14.48;5.68;;;;;;;13.75;100.00;100964.31;5048475;28;20115;-57
2023/07/04 03:50:18;;;;;;;15.65;5.43;;;;;;;13.69;100.00;100968.56;5046696;28;20361;-57
2023/07/04 03:52:44;;;;;;;15.45;5.07;;;;;;;13.64;100.00;100967.59;5047654;28;20029;-57
2023/07/04 03:55:10;;;;;;;13.85;4.93;;;;;;;13.59;100.00;100979.63;5047432;28;20387;-58
2023/07/04 03:57:35;;;;;;;14.82;4.60;;;;;;;13.56;100.00;100971.75;5047806;28;20187;-57
2023/07/04 04:00:00;;;;;;;12.90;5.07;;;;;;;13.47;100.00;100968.91;5035730;28;20026;-58
2023/07/04 04:02:26;;;;;;;18.30;4.90;;;;;;;13.47;100.00;100968.91;5045424;28;20356;-57
2023/07/04 04:04:51;;;;;;;17.98;5.30;;;;;;;13.43;100.00;100968.84;5048087;28;20032;-57
2023/07/04 04:07:16;;;;;;;14.98;5.32;;;;;;;13.42;100.00;100972.28;5047438;28;20071;-58
2023/07/04 04:09:42;;;;;;;18.48;4.78;;;;;;;13.40;100.00;100984.38;5047350;28;20457;-57
2023/07/04 04:12:09;;;;;;;17.42;5.32;;;;;;;13.41;100.00;100986.16;5047791;28;20025;-57
2023/07/04 04:14:36;;;;;;;17.55;5.50;;;;;;;13.42;100.00;100982.69;5046918;28;20043;-57
2023/07/04 04:17:02;;;;;;;11.95;5.10;;;;;;;13.42;100.00;100981.84;5046562;28;20102;-57
2023/07/04 04:19:27;;;;;;;15.30;4.97;;;;;;;13.43;100.00;100978.38;5047947;28;20520;-59
2023/07/04 04:21:53;;;;;;;21.13;5.50;;;;;;;13.44;100.00;100975.81;5047427;28;20131;-57
2023/07/04 04:24:22;;;;;;;19.20;5.97;;;;;;;13.43;100.00;100984.47;5047452;28;20082;-59
2023/07/04 04:26:48;;;;;;;17.02;5.43;;;;;;;13.47;100.00;100985.41;5047574;28;20074;-57
2023/07/04 04:29:17;;;;;;;14.82;5.28;;;;;;;13.48;100.00;100987.16;5047317;28;20033;-56
2023/07/04 04:31:45;;;;;;;15.10;4.60;;;;;;;13.51;100.00;100981.16;5047154;28;20067;-58
2023/07/04 04:34:11;;;;;;;17.55;5.60;;;;;;;13.51;100.00;100983.75;5046871;28;20064;-57
2023/07/04 04:36:37;;;;;;;15.30;4.68;;;;;;;13.52;100.00;100993.31;5046733;28;20035;-55
2023/07/04 04:39:04;;;;;;;15.73;5.13;;;;;;;13.53;100.00;101000.31;5047013;28;20053;-57
2023/07/04 04:41:29;;;;;;;16.80;5.70;;;;;;;13.53;100.00;101000.31;5033673;28;20112;-57
2023/07/04 04:43:57;;;;;;;14.55;5.03;;;;;;;13.54;100.00;100997.75;5047044;28;20552;-58
2023/07/04 04:46:22;;;;;;;16.13;4.88;;;;;;;13.54;100.00;101002.06;5046513;28;20029;-57
2023/07/04 04:48:49;;;;;;;22.45;5.40;;;;;;;13.53;100.00;101010.72;5046674;28;20029;-58
2023/07/04 04:51:14;;;;;;;17.05;6.47;;;;;;;13.52;100.00;100998.53;5046215;28;20443;-58
2023/07/04 04:53:42;;;;;;;22.27;6.63;;;;;;;13.52;100.00;101002.06;5047119;28;20194;-56
2023/07/04 04:56:08;;;;;;;20.10;7.28;;;;;;;13.53;100.00;100992.50;5045916;28;20033;-58
2023/07/04 04:58:35;;;;;;;17.50;5.55;;;;;;;13.55;100.00;101007.31;5046872;28;20033;-58
2023/07/04 05:01:23;;;;;;;16.65;6.22;;;;;;;13.60;100.00;100996.13;5045867;28;20040;-57
2023/07/04 05:03:54;;;;;;;16.90;5.63;;;;;;;13.58;100.00;101003.91;5046364;28;20099;-56
2023/07/04 05:06:20;;;;;;;;;;;;;;;13.63;100.00;101002.28;5046962;28;20078;-57
2023/07/04 05:08:46;;;;;;;23.65;6.00;;;;;;;13.61;100.00;101001.38;5047040;28;19948;-57
2023/07/04 05:11:13;;;;;;;17.65;5.22;;;;;;;13.61;100.00;101009.19;5046357;28;20048;-57
2023/07/04 05:13:40;;;;;;;15.93;4.88;;;;;;;13.63;100.00;101015.31;5043884;28;20029;-57
2023/07/04 05:16:11;;;;;;;20.85;6.18;;;;;;;13.69;100.00;101014.53;5044146;28;20028;-56
2023/07/04 05:18:37;;;;;;;17.45;5.68;;;;;;;13.73;100.00;101013.78;5044409;28;20479;-58
2023/07/04 05:21:04;;;;;;;20.45;6.10;;;;;;;13.77;100.00;101010.41;5043562;28;20032;-58
2023/07/04 05:23:30;;;;;;;18.67;5.90;;;;;;;13.84;100.00;101019.22;5043647;28;20472;-56
2023/07/04 05:26:07;;;;;;;21.55;5.82;;;;;;;13.86;100.00;101012.31;5044408;28;20039;-57
2023/07/04 05:28:33;;;;;;;15.60;6.07;;;;;;;13.92;100.00;101015.03;5043320;28;20075;-56
2023/07/04 05:31:00;;;;;;;16.45;5.70;;;;;;;13.98;100.00;101013.41;5047871;28;20067;-55
2023/07/04 05:33:25;;;;;;;19.92;6.30;;;;;;;14.04;100.00;101019.63;5048410;28;20024;-56
2023/07/04 05:35:51;;;;;;;16.08;5.28;;;;;;;14.08;100.00;101017.97;5047769;28;20089;-58
2023/07/04 05:38:16;;;;;;;21.85;5.90;;;;;;;14.13;100.00;101029.38;5047906;28;20123;-56
2023/07/04 05:40:42;;;;;;;22.63;6.40;;;;;;;14.17;100.00;101025.94;5047637;28;20041;-57
2023/07/04 05:43:07;;;;;;;15.70;6.03;;;;;;;14.26;100.00;101024.41;5048490;28;20048;-57
2023/07/04 05:45:32;;;;;;;16.20;5.80;;;;;;;14.32;100.00;101024.50;5048488;28;20025;-58
2023/07/04 05:47:57;;;;;;;22.85;6.50;;;;;;;14.36;100.00;101030.66;5049741;28;20032;-57
2023/07/04 05:50:23;;;;;;;16.60;5.82;;;;;;;14.44;100.00;101026.50;5050895;28;20031;-58
2023/07/04 05:52:48;;;;;;;17.52;5.97;;;;;;;14.53;100.00;101029.25;5049171;28;20020;-56
2023/07/04 05:55:13;;;;;;;15.85;5.55;;;;;;;14.60;100.00;101017.22;5049558;28;20043;-57
2023/07/04 05:57:38;;;;;;;19.17;5.00;;;;;;;14.68;100.00;101024.31;5050669;28;20548;-56
2023/07/04 06:00:08;;;;;;;19.00;4.68;;;;;;;14.79;100.00;101021.91;5050003;28;20111;-57
2023/07/04 06:02:34;;;;;;;24.33;8.60;;;;;;;14.92;100.00;101025.59;5049023;28;20412;-57
2023/07/04 06:04:59;;;;;;;19.40;5.53;;;;;;;14.98;100.00;101017.88;5049988;28;20026;-58
2023/07/04 06:07:29;;;;;;;17.40;4.38;;;;;;;15.10;100.00;101031.13;5048037;28;20114;-61
2023/07/04 06:09:54;;;;;;;15.88;5.05;;;;;;;15.19;100.00;101024.28;5050466;28;20531;-57
2023/07/04 06:12:20;;;;;;;15.32;4.63;;;;;;;15.27;100.00;101035.75;5048838;28;20111;-57
2023/07/04 06:14:45;;;;;;;16.80;4.50;;;;;;;15.33;100.00;101034.94;5049760;28;20029;-58
2023/07/04 06:17:10;;;;;;;21.25;5.20;;;;;;;15.38;100.00;101042.88;5049545;28;20021;-57
2023/07/04 06:19:35;;;;;;;15.57;4.40;;;;;;;15.46;100.00;101043.84;5049545;28;20427;-57
2023/07/04 06:22:05;;;;;;;14.00;4.70;;;;;;;15.52;100.00;101049.19;5049985;28;20025;-57
2023/07/04 06:24:30;;;;;;;17.63;5.22;;;;;;;15.65;100.00;101054.59;5049739;28;20435;-58
2023/07/04 06:26:55;;;;;;;13.60;4.55;;;;;;;15.76;100.00;101050.38;5048156;28;20076;-59
2023/07/04 06:29:21;;;;;;;11.85;4.20;;;;;;;15.87;100.00;101044.41;5040894;28;20033;-58
2023/07/04 06:31:48;;;;;;;20.20;4.82;;;;;;;15.99;100.00;101047.22;5040144;28;20036;-58
2023/07/04 06:34:13;;;;;;;13.52;4.00;;;;;;;16.09;100.00;101050.84;5047737;28;20231;-58
2023/07/04 06:36:40;;;;;;;14.13;3.75;;;;;;;16.15;100.00;101050.91;5036607;28;20134;-59
2023/07/04 06:39:05;;;;;;;14.48;4.03;;;;;;;16.26;100.00;101053.63;5045867;28;20535;-57
2023/07/04 06:41:31;;;;;;;11.02;3.50;;;;;;;16.35;100.00;101044.16;5044352;28;20627;-59
2023/07/04 06:43:56;;;;;;;11.82;3.78;;;;;;;16.45;100.00;101053.84;5045941;28;20028;-58
2023/07/04 06:46:22;;;;;;;8.40;3.20;;;;;;;16.53;100.00;101064.41;5047539;28;20117;-59
2023/07/04 06:48:48;;;;;;;9.43;3.10;;;;;;;16.67;100.00;101061.94;5037472;28;20489;-58
2023/07/04 06:51:15;;;;;;;11.50;4.10;;;;;;;16.75;100.00;101072.47;5041468;28;20052;-58
2023/07/04 06:53:41;;;;;;;11.95;3.10;;;;;;;16.69;100.00;101061.06;5039887;28;20373;-58
2023/07/04 06:56:13;;;;;;;13.63;3.25;;;;;;;16.67;100.00;101070.69;5044149;28;20037;-58
2023/07/04 06:58:40;;;;;;;8.82;3.58;;;;;;;16.77;100.00;101071.63;5047100;28;20029;-58
2023/07/04 07:01:06;;;;;;;10.57;3.45;;;;;;;16.93;100.00;101083.13;5038854;28;20519;-57
2023/07/04 07:03:32;;;;;;;11.35;3.75;;;;;;;17.04;100.00;101083.22;5046623;28;20183;-58
2023/07/04 07:06:02;;;;;;;8.85;3.63;;;;;;;16.99;98.12;101071.84;5046325;28;20384;-58
2023/07/04 07:08:27;;;;;;;12.57;3.58;;;;;;;17.03;98.87;101078.88;5039210;28;20032;-59
2023/07/04 07:10:55;;;;;;;11.23;3.38;;;;;;;17.10;99.64;101084.13;5044150;28;20029;-58
2023/07/04 07:13:20;;;;;;;9.35;2.90;;;;;;;17.19;98.75;101081.63;5045132;28;20423;-59
2023/07/04 07:15:46;;;;;;;7.55;2.67;;;;;;;17.32;100.00;101082.63;5042526;28;20220;-58
2023/07/04 07:18:11;;;;;;;8.23;2.58;;;;;;;17.40;98.06;101085.28;5046717;28;20063;-59
2023/07/04 07:20:36;;;;;;;10.27;2.90;;;;;;;17.41;97.14;101089.66;5037135;28;20025;-61
2023/07/04 07:23:01;;;;;;;10.65;2.95;;;;;;;17.48;95.26;101081.00;5041699;28;20029;-60
2023/07/04 07:25:27;;;;;;;12.10;3.05;;;;;;;17.56;91.85;101072.31;5049113;28;20025;-60
2023/07/04 07:27:52;;;;;;;7.63;2.65;;;;;;;17.64;89.83;101081.09;5048668;28;20040;-61
2023/07/04 07:30:17;;;;;;;9.05;3.25;;;;;;;17.80;90.51;101087.28;5048495;28;20051;-60
2023/07/04 07:32:43;;;;;;;6.80;3.10;;;;;;;17.87;87.08;101104.81;5047874;28;20383;-59
2023/07/04 07:35:09;;;;;;;10.32;2.70;;;;;;;17.92;84.38;101107.44;5046464;28;20033;-60
2023/07/04 07:37:34;;;;;;;6.93;2.25;;;;;;;18.07;86.28;101109.28;5047976;28;20128;-60
2023/07/04 07:40:00;;;;;;;6.95;2.47;;;;;;;18.30;86.83;101105.91;5046454;28;20052;-61
2023/07/04 07:42:25;;;;;;;10.88;3.95;;;;;;;18.46;85.22;101087.59;5048176;28;20263;-59
2023/07/04 07:44:50;;;;;;;7.55;2.38;;;;;;;18.45;83.95;101085.84;5047412;28;20130;-60
2023/07/04 07:47:15;;;;;;;10.02;2.72;;;;;;;18.53;82.88;101096.38;5047015;28;20036;-58
2023/07/04 07:49:41;;;;;;;10.65;3.20;;;;;;;18.67;81.40;101102.50;5048601;28;20932;-59
2023/07/04 07:52:06;;;;;;;5.43;2.63;;;;;;;18.90;80.74;101098.19;5045188;28;20029;-59
2023/07/04 07:54:31;;;;;;;7.60;2.42;;;;;;;18.88;75.85;101100.81;5043995;28;20032;-60
2023/07/04 07:56:57;;;;;;;10.95;3.03;;;;;;;18.90;76.55;101099.09;5047913;28;20021;-59
2023/07/04 07:59:22;;;;;;;6.00;2.65;;;;;;;18.86;75.16;101101.69;5037876;28;20025;-59
2023/07/04 08:01:47;;;;;;;7.35;2.75;;;;;;;18.94;75.83;101108.69;5048111;28;20366;-59
2023/07/04 08:04:13;;;;;;;7.10;2.47;;;;;;;19.04;76.70;101098.22;5034355;28;20088;-59
2023/07/04 08:06:41;;;;;;;12.13;3.17;;;;;;;19.26;77.25;101106.13;5048214;28;20484;-59
2023/07/04 08:09:10;;;;;;;9.63;3.15;;;;;;;19.33;73.57;101107.88;5047113;28;20039;-60
2023/07/04 08:11:37;;;;;;;8.88;2.55;;;;;;;19.36;70.74;101104.38;5047811;28;20032;-60
2023/07/04 08:14:02;;;;;;;10.43;2.38;;;;;;;19.46;70.90;101115.75;5046569;28;20530;-58
2023/07/04 08:16:30;;;;;;;7.80;2.72;;;;;;;19.54;70.67;101116.63;5046670;28;20036;-59
2023/07/04 08:18:58;;;;;;;8.02;2.63;;;;;;;19.51;68.92;101127.13;5046851;28;20024;-58
2023/07/04 08:21:24;;;;;;;9.13;2.80;;;;;;;19.41;71.04;101111.38;5047251;28;20025;-59
2023/07/04 08:23:50;;;;;;;6.47;2.63;;;;;;;19.44;71.60;101113.13;5046811;28;20075;-59
2023/07/04 08:26:18;;;;;;;6.80;2.20;;;;;;;19.56;71.70;101109.59;5046690;28;20025;-58
2023/07/04 08:28:43;;;;;;;7.57;2.80;;;;;;;19.46;70.10;101108.75;5047071;28;20040;-59
2023/07/04 08:31:09;;;;;;;10.82;2.55;;;;;;;19.40;66.47;101121.88;5046900;28;20025;-57
2023/07/04 08:33:35;;;;;;;6.13;2.53;;;;;;;19.47;67.87;101125.38;5046960;28;20413;-58
2023/07/04 08:36:03;;;;;;;6.45;2.38;;;;;;;19.46;66.21;101118.38;5047568;28;20086;-59
2023/07/04 08:38:29;;;;;;;8.48;2.35;;;;;;;19.55;67.38;101113.13;5045169;28;20055;-59
2023/07/04 08:40:55;;;;;;;5.82;2.03;;;;;;;19.62;66.67;101099.09;5046976;28;20021;-59
2023/07/04 08:43:41;;;;;;;10.20;2.70;;;;;;;19.90;64.97;101093.75;5042921;28;20055;-59
2023/07/04 08:46:10;;;;;;;10.13;2.83;;;;;;;20.05;62.58;101092.00;5043913;28;20073;-59
2023/07/04 08:48:38;;;;;;;7.45;1.98;;;;;;;20.19;60.67;101098.94;5047012;28;20388;-59
2023/07/04 08:51:03;;;;;;;7.80;2.97;;;;;;;20.31;61.42;101100.66;5046542;28;20589;-59
2023/07/04 08:53:30;;;;;;;6.40;2.13;;;;;;;20.34;60.16;101117.31;5046307;28;20033;-59
2023/07/04 08:56:16;;;;;;;6.38;2.08;;;;;;;20.21;59.64;101112.97;5047297;28;20051;-59
2023/07/04 08:58:58;;;;;;;6.95;2.55;;;;;;;20.08;59.18;101106.88;5040823;28;20510;-59
2023/07/04 09:01:50;;;;;;;5.10;2.15;;;;;;;20.12;58.63;101111.25;5046985;28;20090;-59
2023/07/04 09:04:46;;;;;;;4.90;1.77;;;;;;;20.34;58.19;101119.06;5030539;28;20037;-58
2023/07/04 09:07:24;;;;;;;4.72;1.83;;;;;;;20.64;58.97;101112.78;5041899;28;21001;-59
2023/07/04 09:10:04;;;;;;;7.05;2.08;;;;;;;20.78;55.94;101124.97;5033300;28;20326;-57
2023/07/04 09:12:35;;;;;;;5.65;2.38;;;;;;;20.59;56.20;101133.00;5046691;28;20025;-59
2023/07/04 09:15:13;;;;;;;6.25;1.77;;;;;;;20.43;54.99;101128.69;5045677;28;20017;-59
2023/07/04 09:17:46;;;;;;;6.68;2.00;;;;;;;20.33;55.19;101133.13;5040947;28;20039;-59
2023/07/04 09:20:12;;;;;;;4.85;2.00;;;;;;;20.45;56.31;101137.44;5046387;28;20547;-57
2023/07/04 09:22:37;;;;;;;8.68;2.33;;;;;;;20.70;56.50;101132.06;5045790;28;20137;-59
2023/07/04 09:25:04;;;;;;;7.40;2.33;;;;;;;20.88;55.68;101131.06;5046706;28;20036;-59
2023/07/04 09:27:29;;;;;;;7.18;2.47;;;;;;;21.06;56.74;101135.38;5046687;28;20031;-59
2023/07/04 09:29:56;;;;;;;6.65;2.00;;;;;;;21.16;56.19;101132.63;5045870;28;20473;-59
2023/07/04 09:32:21;;;;;;;5.90;2.00;;;;;;;21.32;56.15;101141.28;5046079;28;20100;-59
2023/07/04 09:34:55;;;;;;;5.78;2.10;;;;;;;21.28;56.83;101135.19;5046529;28;20048;-59
2023/07/04 09:37:24;;;;;;;6.95;2.40;;;;;;;21.22;56.17;101140.50;5046527;28;20172;-59
2023/07/04 09:39:55;;;;;;;6.75;2.15;;;;;;;21.41;58.95;101145.63;5046268;28;20025;-59
2023/07/04 09:42:39;;;;;;;7.00;2.65;;;;;;;21.52;56.08;101153.44;5046350;28;20160;-58
2023/07/04 09:45:07;;;;;;;4.25;1.92;;;;;;;21.50;56.55;101149.97;5046514;28;20436;-59
2023/07/04 09:47:33;;;;;;;6.55;2.67;;;;;;;21.39;54.83;101150.03;5047037;28;20107;-59
2023/07/04 09:50:12;;;;;;;7.47;2.65;;;;;;;21.36;55.41;101150.94;5045946;28;20116;-60
2023/07/04 09:52:38;;;;;;;5.57;2.33;;;;;;;21.22;53.51;101159.84;5045498;28;20082;-59
2023/07/04 09:55:24;;;;;;;4.43;2.05;;;;;;;21.35;55.08;101147.41;5046059;28;20400;-59
2023/07/04 09:57:50;;;;;;;5.25;2.13;;;;;;;21.51;54.60;101151.69;5046565;28;20104;-59
2023/07/04 10:00:20;;;;;;;7.75;2.50;;;;;;;21.59;53.96;101145.47;5046031;28;20104;-60
2023/07/04 10:02:48;;;;;;;5.82;1.90;;;;;;;21.63;54.14;101153.34;5044584;28;20373;-59
2023/07/04 10:05:24;;;;;;;6.93;2.58;;;;;;;21.61;54.82;101158.63;5046788;28;20107;-59
2023/07/04 10:08:05;;;;;;;6.85;1.95;;;;;;;21.68;55.99;101159.44;5046487;28;20029;-59
2023/07/04 10:10:32;;;;;;;;;;;;;;;21.72;53.30;101158.53;5046543;28;20374;-59
2023/07/04 10:12:58;;;;;;;6.10;2.17;;;;;;;21.71;52.20;101151.50;5045937;28;20420;-58
2023/07/04 10:15:26;;;;;;;4.93;1.75;;;;;;;21.77;51.49;101154.06;5047362;28;20025;-59
2023/07/04 10:17:52;;;;;;;5.10;1.60;;;;;;;21.82;50.85;101149.66;5044699;28;20036;-59
2023/07/04 10:20:18;;;;;;;3.85;1.40;;;;;;;21.89;51.41;101146.97;5049434;28;20033;-58
2023/07/04 10:22:52;;;;;;;4.70;1.85;;;;;;;21.89;49.36;101141.69;5043719;28;20029;-58
2023/07/04 10:25:22;;;;;;;5.93;2.08;;;;;;;21.76;50.76;101141.78;5044817;28;20032;-58
2023/07/04 10:27:52;;;;;;;5.00;2.03;;;;;;;21.64;52.11;101149.81;5049605;28;20473;-60
2023/07/04 10:30:23;;;;;;;8.02;2.20;;;;;;;21.69;52.65;101142.75;5048963;28;20575;-59
2023/07/04 10:32:53;;;;;;;8.35;2.30;;;;;;;21.71;52.56;101143.59;5049168;28;20067;-59
2023/07/04 10:35:24;;;;;;;8.03;2.50;;;;;;;21.49;53.76;101143.81;5048656;28;20448;-57
2023/07/04 10:37:52;;;;;;;;;;;;;;;21.31;53.98;101150.97;5049507;28;20052;-59
2023/07/04 10:40:19;;;;;;;5.32;1.90;;;;;;;21.40;54.69;101141.25;5049413;28;20461;-59
2023/07/04 10:42:55;;;;;;;7.05;2.05;;;;;;;21.45;54.76;101147.34;5048826;28;20120;-59
2023/07/04 10:45:24;;;;;;;6.60;2.28;;;;;;;21.48;54.10;101148.19;5047246;28;20086;-59
2023/07/04 10:47:53;;;;;;;7.50;2.17;;;;;;;21.34;52.63;101150.94;5046653;28;20060;-58
2023/07/04 10:50:27;;;;;;;5.72;1.90;;;;;;;21.45;53.54;101142.06;5034562;28;20021;-58
2023/07/04 10:52:53;;;;;;;5.25;2.13;;;;;;;21.65;52.59;101148.91;5044844;28;20446;-59
2023/07/04 10:55:21;;;;;;;7.07;2.17;;;;;;;21.71;52.21;101148.88;5048069;28;20151;-59
2023/07/04 10:57:56;;;;;;;5.10;2.00;;;;;;;21.97;53.17;101167.97;5047877;28;20021;-58
2023/07/04 11:00:40;;;;;;;3.40;1.60;;;;;;;22.10;51.60;101152.88;5047857;28;20025;-59
2023/07/04 11:03:24;;;;;;;6.60;1.90;;;;;;;22.00;50.71;101160.91;5048031;28;20606;-59
2023/07/04 11:05:54;;;;;;;3.78;1.63;;;;;;;21.86;50.24;101157.56;5047835;28;20275;-57
2023/07/04 11:08:22;;;;;;;4.95;1.85;;;;;;;21.98;50.56;101160.06;5048384;28;20091;-59
2023/07/04 11:10:56;;;;;;;5.65;2.00;;;;;;;22.06;49.82;101159.97;5048152;28;20017;-58
2023/07/04 11:13:24;;;;;;;4.13;1.70;;;;;;;21.88;50.69;101158.38;5048509;28;20404;-59
2023/07/04 11:15:56;;;;;;;6.75;1.92;;;;;;;21.60;50.31;101160.38;5048327;28;20028;-59
2023/07/04 11:18:27;;;;;;;5.15;1.90;;;;;;;21.42;51.99;101152.66;5048168;28;20104;-60
2023/07/04 11:21:10;;;;;;;6.57;1.95;;;;;;;21.30;52.42;101153.63;5043163;28;20017;-61